createdAt,value
2019-03-31T00:50:54.817Z,54.10
2019-03-31T00:56:02.434Z,55.10
2019-03-31T01:01:09.869Z,46.53
2019-03-31T01:06:19.928Z,48.40
2019-03-31T01:11:30.517Z,48.87
2019-03-31T01:16:37.867Z,46.50
2019-03-31T01:21:45.730Z,46.45
2019-03-31T01:26:53.544Z,41.85
2019-03-31T01:32:01.008Z,45.52
2019-03-31T01:37:08.891Z,44.00
2019-03-31T01:42:16.508Z,47.60
2019-03-31T01:47:24.486Z,39.30
2019-03-31T01:52:31.821Z,49.60
2019-03-31T01:57:39.824Z,47.40
2019-03-31T02:02:47.887Z,40.33
2019-03-31T02:07:55.426Z,40.52
2019-03-31T02:13:02.973Z,37.93
2019-03-31T02:18:10.598Z,43.63
2019-03-31T02:23:18.345Z,46.40
2019-03-31T02:28:26.214Z,41.08
2019-03-31T02:33:55.835Z,44.38
2019-03-31T02:39:03.770Z,45.33
2019-03-31T02:44:18.402Z,43.33
2019-03-31T02:49:27.088Z,48.30
2019-03-31T02:54:34.907Z,40.35
2019-03-31T02:59:42.805Z,41.05
2019-03-31T03:04:51.587Z,37.93
2019-03-31T03:09:59.750Z,39.53
2019-03-31T03:15:09.004Z,40.35
2019-03-31T03:20:17.570Z,43.05
2019-03-31T03:25:25.804Z,43.90
2019-03-31T03:30:33.758Z,37.17
2019-03-31T03:35:42.662Z,39.23
2019-03-31T03:40:50.399Z,43.95
2019-03-31T03:45:58.850Z,39.83
2019-03-31T03:51:06.943Z,42.60
2019-03-31T03:56:14.740Z,39.73
2019-03-31T04:01:24.414Z,37.38
2019-03-31T04:06:32.363Z,35.17
2019-03-31T04:11:40.178Z,37.25
2019-03-31T04:16:47.877Z,40.45
2019-03-31T04:21:55.837Z,37.35
2019-03-31T04:27:03.707Z,35.05
2019-03-31T04:32:11.538Z,36.63
2019-03-31T04:37:20.298Z,37.28
2019-03-31T04:42:28.413Z,39.18
2019-03-31T04:47:37.738Z,34.18
2019-03-31T04:52:46.546Z,35.70
2019-03-31T04:57:54.419Z,35.60
2019-03-31T05:03:02.162Z,36.93
2019-03-31T05:08:09.633Z,35.80
2019-03-31T05:13:17.911Z,44.05
2019-03-31T05:18:26.575Z,40.60
2019-03-31T05:23:34.293Z,40.33
2019-03-31T05:28:44.304Z,41.25
2019-03-31T05:33:52.689Z,35.68
2019-03-31T05:39:01.104Z,30.72
2019-03-31T05:50:24.134Z,34.30
2019-03-31T05:55:31.913Z,36.93
2019-03-31T06:00:40.882Z,34.48
2019-03-31T06:05:48.842Z,35.65
2019-03-31T06:10:55.858Z,34.00
2019-03-31T06:16:02.868Z,37.98
2019-03-31T06:21:09.921Z,34.53
2019-03-31T06:26:16.755Z,31.77
2019-03-31T06:31:23.611Z,42.75
2019-03-31T06:36:31.565Z,37.80
2019-03-31T06:41:39.103Z,38.23
2019-03-31T06:46:48.355Z,40.23
2019-03-31T06:51:56.314Z,34.63
2019-03-31T06:57:03.300Z,37.95
2019-03-31T07:02:10.465Z,35.15
2019-03-31T07:07:18.774Z,34.55
2019-03-31T07:12:25.993Z,35.20
2019-03-31T07:17:33.437Z,34.50
2019-03-31T07:22:41.384Z,40.67
2019-03-31T07:27:48.610Z,31.90
2019-03-31T07:32:56.741Z,35.03
2019-03-31T07:38:04.003Z,31.97
2019-03-31T07:43:11.129Z,33.75
2019-03-31T07:48:18.475Z,31.42
2019-03-31T07:53:25.356Z,28.77
2019-03-31T07:58:33.291Z,26.35
2019-03-31T08:03:40.300Z,31.10
2019-03-31T08:08:47.358Z,33.35
2019-03-31T08:13:55.543Z,29.90
2019-03-31T08:19:03.353Z,28.32
2019-03-31T08:24:32.184Z,33.35
2019-03-31T08:29:39.103Z,40.85
2019-03-31T08:34:47.049Z,36.83
2019-03-31T08:39:55.154Z,33.10
2019-03-31T08:45:02.912Z,35.33
2019-03-31T08:50:10.640Z,28.07
2019-03-31T08:55:18.609Z,34.23
2019-03-31T09:00:26.918Z,31.50
2019-03-31T09:05:34.195Z,32.58
2019-03-31T09:10:41.099Z,30.12
2019-03-31T09:15:47.888Z,34.53
2019-03-31T09:20:55.202Z,47.05
2019-03-31T09:26:02.845Z,34.63
2019-03-31T09:31:10.801Z,47.15
2019-03-31T09:36:18.016Z,39.67
2019-03-31T09:41:25.863Z,33.65
2019-03-31T09:46:33.140Z,41.10
2019-03-31T09:51:42.655Z,36.53
2019-03-31T09:56:50.938Z,43.25
2019-03-31T10:01:59.928Z,24.35
2019-03-31T10:07:07.514Z,32.00
2019-03-31T10:12:14.341Z,29.52
2019-03-31T10:17:22.391Z,26.62
2019-03-31T10:22:29.389Z,31.05
2019-03-31T10:27:37.247Z,41.55
2019-03-31T10:32:44.256Z,34.58
2019-03-31T10:37:52.218Z,33.23
2019-03-31T10:43:00.233Z,30.50
2019-03-31T10:48:19.633Z,29.72
2019-03-31T10:53:17.094Z,28.75
2019-03-31T10:58:25.171Z,30.85
2019-03-31T11:03:33.482Z,81.90
2019-03-31T11:08:40.799Z,111.88
2019-03-31T11:13:47.711Z,41.00
2019-03-31T11:18:55.463Z,37.15
2019-03-31T11:24:03.065Z,37.55
2019-03-31T11:29:10.205Z,38.60
2019-03-31T11:34:19.661Z,32.05
2019-03-31T11:39:26.825Z,49.40
2019-03-31T11:44:34.597Z,30.23
2019-03-31T11:49:42.133Z,57.83
2019-03-31T11:54:49.820Z,229.78
2019-03-31T11:59:57.833Z,122.50
2019-03-31T12:05:06.482Z,105.55
2019-03-31T12:10:13.976Z,88.70
2019-03-31T12:15:20.997Z,102.38
2019-03-31T12:20:28.011Z,58.20
2019-03-31T12:25:36.048Z,36.80
2019-03-31T12:30:44.242Z,23.75
2019-03-31T12:35:51.410Z,29.27
2019-03-31T12:40:59.540Z,34.70
2019-03-31T12:46:07.089Z,42.75
2019-03-31T12:51:14.086Z,53.90
2019-03-31T12:56:21.697Z,40.25
2019-03-31T13:01:29.654Z,30.40
2019-03-31T13:06:37.595Z,25.37
2019-03-31T13:11:44.465Z,26.25
2019-03-31T13:16:51.398Z,29.45
2019-03-31T13:21:59.290Z,25.17
2019-03-31T13:27:06.707Z,24.63
2019-03-31T13:32:13.702Z,21.35
2019-03-31T13:37:21.125Z,29.27
2019-03-31T13:42:28.959Z,23.27
2019-03-31T13:47:36.318Z,27.15
2019-03-31T13:52:43.373Z,25.50
2019-03-31T13:57:52.707Z,26.00
2019-03-31T14:02:59.445Z,29.67
2019-03-31T14:08:07.797Z,27.13
2019-03-31T14:13:15.705Z,25.80
2019-03-31T14:18:22.627Z,34.23
2019-03-31T14:23:30.811Z,32.53
2019-03-31T14:28:38.738Z,31.20
2019-03-31T14:33:46.888Z,29.57
2019-03-31T14:38:55.405Z,30.20
2019-03-31T14:44:02.714Z,29.60
2019-03-31T14:49:10.133Z,26.23
2019-03-31T14:54:17.265Z,27.87
2019-03-31T14:59:25.106Z,29.07
2019-03-31T15:04:33.160Z,29.40
2019-03-31T15:09:41.833Z,35.78
2019-03-31T15:14:50.634Z,29.07
2019-03-31T15:19:58.579Z,32.05
2019-03-31T15:25:07.549Z,28.30
2019-03-31T15:30:15.013Z,24.15
2019-03-31T15:35:22.077Z,21.07
2019-03-31T15:40:29.756Z,19.67
2019-03-31T15:45:38.285Z,22.80
2019-03-31T15:50:45.823Z,19.48
2019-03-31T15:55:52.733Z,25.95
2019-03-31T16:00:59.779Z,24.07
2019-03-31T16:06:06.666Z,26.27
2019-03-31T16:11:14.114Z,19.30
2019-03-31T16:16:21.458Z,22.13
2019-03-31T16:21:28.621Z,21.90
2019-03-31T16:26:35.453Z,23.40
2019-03-31T16:31:42.498Z,16.52
2019-03-31T16:36:49.274Z,21.10
2019-03-31T16:41:56.145Z,21.15
2019-03-31T16:47:03.142Z,28.00
2019-03-31T16:52:10.200Z,19.73
2019-03-31T16:57:16.924Z,18.57
2019-03-31T17:02:24.184Z,29.95
2019-03-31T17:07:31.019Z,19.70
2019-03-31T17:12:38.253Z,20.82
2019-03-31T17:17:45.582Z,23.12
2019-03-31T17:22:52.803Z,22.10
2019-03-31T17:27:59.459Z,21.48
2019-03-31T17:33:06.498Z,20.50
2019-03-31T17:38:13.452Z,17.00
2019-03-31T17:43:20.412Z,18.77
2019-03-31T17:48:27.396Z,23.45
2019-03-31T17:53:35.023Z,21.80
2019-03-31T17:58:41.895Z,18.23
2019-03-31T18:03:49.319Z,16.93
2019-03-31T18:08:56.234Z,18.57
2019-03-31T18:14:06.506Z,18.50
2019-03-31T18:19:11.530Z,19.45
2019-03-31T18:24:18.368Z,21.85
2019-03-31T18:29:25.001Z,16.45
2019-03-31T18:34:32.029Z,18.00
2019-03-31T18:39:39.162Z,19.15
2019-03-31T18:44:46.276Z,23.67
2019-03-31T18:49:53.281Z,18.12
2019-03-31T18:55:01.585Z,20.27
2019-03-31T19:00:09.732Z,18.70
2019-03-31T19:05:17.995Z,17.80
2019-03-31T19:10:26.262Z,24.98
2019-03-31T19:15:35.477Z,22.15
2019-03-31T19:20:43.622Z,25.10
2019-03-31T19:25:52.219Z,25.35
2019-03-31T19:31:00.760Z,28.65
2019-03-31T19:36:08.949Z,21.33
2019-03-31T19:41:17.348Z,22.87
2019-03-31T19:46:25.422Z,21.12
2019-03-31T19:51:33.911Z,25.82
2019-03-31T19:56:42.113Z,21.95
2019-03-31T20:01:50.122Z,24.05
2019-03-31T20:06:58.432Z,22.75
2019-03-31T20:12:06.575Z,26.27
2019-03-31T20:17:14.913Z,22.87
2019-03-31T20:22:23.622Z,30.30
2019-03-31T20:27:32.020Z,30.05
2019-03-31T20:32:40.354Z,26.20
2019-03-31T20:37:48.524Z,28.83
2019-03-31T20:42:56.792Z,28.17
2019-03-31T20:48:04.051Z,31.27
2019-03-31T20:53:10.999Z,29.48
2019-03-31T20:58:18.170Z,27.62
2019-03-31T21:03:25.542Z,28.62
2019-03-31T21:08:32.495Z,30.02
2019-03-31T21:13:39.535Z,33.40
2019-03-31T21:18:46.913Z,30.30
2019-03-31T21:23:54.942Z,38.20
2019-03-31T21:29:02.105Z,43.90
2019-03-31T21:34:09.216Z,46.20
2019-03-31T21:39:16.939Z,43.83
2019-03-31T21:44:23.938Z,49.95
2019-03-31T21:49:30.926Z,52.15
2019-03-31T21:54:38.063Z,41.85
2019-03-31T21:59:45.124Z,37.15
2019-03-31T22:04:52.183Z,39.38
2019-03-31T22:09:59.334Z,37.78
2019-03-31T22:15:09.627Z,37.40
2019-03-31T22:20:17.081Z,35.83
2019-03-31T22:25:24.189Z,36.25
2019-03-31T22:30:31.117Z,36.45
2019-03-31T22:35:38.119Z,36.03
2019-03-31T22:40:44.963Z,35.60
2019-03-31T22:45:52.171Z,41.00
2019-03-31T22:50:59.353Z,46.92
2019-03-31T22:56:06.203Z,45.28
2019-03-31T23:01:13.334Z,62.25
2019-03-31T23:06:20.604Z,55.23
2019-03-31T23:11:27.625Z,45.60
2019-03-31T23:16:34.915Z,46.73
2019-03-31T23:21:42.081Z,41.13
2019-03-31T23:26:49.369Z,50.20
2019-03-31T23:31:56.682Z,42.98
2019-03-31T23:37:04.320Z,44.30
2019-03-31T23:42:12.495Z,47.30
2019-03-31T23:47:20.265Z,99.17
2019-03-31T23:52:27.678Z,103.87
2019-03-31T23:57:36.287Z,60.70
